Time;durP1;ratioP1;P1;durP2;ratioP2;P2;SDS_P1;SDS_P2;PMS_P1;PMS_P2;Temp;Humidity;BMP_temperature;BMP_pressure;BME280_temperature;BME280_humidity;BME280_pressure;Samples;Min_cycle;Max_cycle;Signal;HPM_P1;HPM_P2
2023/01/30 00:00:29;;;;;;;59.35;51.05;;;12.40;60.90;;;;;;4954642;28;94708;-52
2023/01/30 00:02:54;;;;;;;58.05;50.78;;;12.50;61.10;;;;;;4933299;28;94294;-58
2023/01/30 00:05:20;;;;;;;55.67;49.05;;;12.40;61.00;;;;;;4942804;28;92552;-56
2023/01/30 00:07:46;;;;;;;57.05;49.45;;;12.40;61.20;;;;;;4938340;28;91981;-50
2023/01/30 00:10:12;;;;;;;56.13;48.67;;;12.40;61.20;;;;;;4938321;28;95098;-59
2023/01/30 00:12:37;;;;;;;58.15;50.20;;;12.40;61.00;;;;;;4942525;28;91182;-60
2023/01/30 00:15:04;;;;;;;57.13;49.17;;;12.40;61.10;;;;;;4947253;28;91871;-58
2023/01/30 00:17:29;;;;;;;57.60;49.30;;;12.40;61.00;;;;;;4945129;28;91443;-60
2023/01/30 00:19:55;;;;;;;56.20;48.67;;;12.40;61.00;;;;;;4946629;28;92270;-60
2023/01/30 00:22:20;;;;;;;57.55;50.00;;;12.40;61.00;;;;;;4932398;28;93803;-58
2023/01/30 00:24:46;;;;;;;55.20;48.50;;;12.40;61.00;;;;;;4934932;28;94496;-60
2023/01/30 00:27:12;;;;;;;57.58;49.70;;;12.40;61.00;;;;;;4937381;28;90175;-59
2023/01/30 00:29:37;;;;;;;56.90;49.50;;;12.50;60.90;;;;;;4945764;28;92337;-60
2023/01/30 00:32:03;;;;;;;57.92;49.85;;;12.50;60.90;;;;;;4932962;28;91092;-57
2023/01/30 00:34:29;;;;;;;56.35;48.92;;;12.40;60.80;;;;;;4943067;28;91025;-53
2023/01/30 00:36:54;;;;;;;55.17;48.75;;;12.50;60.90;;;;;;4938888;28;93037;-57
2023/01/30 00:39:20;;;;;;;56.60;49.20;;;12.50;60.80;;;;;;4940012;28;90231;-58
2023/01/30 00:47:14;;;;;;;56.05;48.70;;;12.60;60.50;;;;;;4941417;28;93829;-51
2023/01/30 00:49:41;;;;;;;56.50;49.17;;;12.50;60.30;;;;;;4946300;28;91041;-59
2023/01/30 00:52:06;;;;;;;57.67;50.03;;;12.60;60.70;;;;;;4941378;28;89836;-59
2023/01/30 00:54:32;;;;;;;56.17;48.90;;;12.40;61.00;;;;;;4947081;28;94582;-58
2023/01/30 00:56:58;;;;;;;57.80;49.50;;;12.40;61.20;;;;;;4960213;28;93501;-59
2023/01/30 00:59:24;;;;;;;56.83;49.47;;;12.40;61.30;;;;;;4940333;28;90915;-59
2023/01/30 01:01:50;;;;;;;57.95;50.45;;;12.40;61.20;;;;;;4933151;28;92573;-59
2023/01/30 01:04:16;;;;;;;59.90;50.45;;;12.50;61.20;;;;;;4946499;28;90233;-59
2023/01/30 01:06:41;;;;;;;57.97;50.50;;;12.40;61.20;;;;;;4937573;28;93882;-57
2023/01/30 01:09:07;;;;;;;58.50;50.85;;;12.40;61.30;;;;;;4938533;28;93831;-59
2023/01/30 01:11:33;;;;;;;57.75;49.40;;;12.50;61.10;;;;;;4943597;28;91612;-57
2023/01/30 01:14:00;;;;;;;59.53;50.85;;;12.40;61.10;;;;;;4951040;28;92595;-58
2023/01/30 01:16:28;;;;;;;59.20;50.50;;;12.40;61.20;;;;;;4937008;28;90102;-59
2023/01/30 01:18:53;;;;;;;57.15;49.17;;;12.50;61.30;;;;;;4944969;28;92546;-60
2023/01/30 01:21:20;;;;;;;59.08;50.63;;;12.40;61.00;;;;;;4935946;28;94994;-60
2023/01/30 01:23:54;;;;;;;57.42;49.28;;;12.50;61.10;;;;;;4939389;28;89648;-51
2023/01/30 01:26:20;;;;;;;56.92;49.30;;;12.50;61.10;;;;;;4934161;28;95851;-59
2023/01/30 01:28:45;;;;;;;56.85;49.50;;;12.50;61.00;;;;;;4938827;28;92353;-59
2023/01/30 01:31:13;;;;;;;57.42;49.70;;;12.50;61.10;;;;;;4948364;28;91765;-58
2023/01/30 01:33:39;;;;;;;59.55;50.20;;;12.50;61.10;;;;;;4938029;28;90451;-60
2023/01/30 01:36:05;;;;;;;55.60;48.20;;;12.50;61.10;;;;;;4932983;28;90396;-52
2023/01/30 01:38:31;;;;;;;54.20;47.70;;;12.50;61.10;;;;;;4944041;28;90937;-60
2023/01/30 01:41:00;;;;;;;56.67;49.55;;;12.50;61.20;;;;;;4935182;28;92840;-60
2023/01/30 01:43:29;;;;;;;57.35;49.00;;;12.50;61.20;;;;;;4938836;28;89848;-60
2023/01/30 01:46:05;;;;;;;55.33;48.47;;;12.50;61.10;;;;;;4939555;28;90927;-58
2023/01/30 01:48:35;;;;;;;56.85;48.42;;;12.60;61.10;;;;;;4948473;28;91359;-59
2023/01/30 01:51:08;;;;;;;55.42;48.63;;;12.50;60.90;;;;;;4940168;28;90928;-51
2023/01/30 01:53:38;;;;;;;53.72;47.25;;;12.50;61.00;;;;;;4953127;28;90237;-60
2023/01/30 01:56:05;;;;;;;55.90;48.30;;;12.60;61.10;;;;;;4941587;28;90337;-59
2023/01/30 01:58:36;;;;;;;54.88;47.83;;;12.50;61.10;;;;;;4939780;28;90552;-56
2023/01/30 02:01:02;;;;;;;56.38;48.88;;;12.60;61.10;;;;;;4944049;28;89889;-54
2023/01/30 02:03:31;;;;;;;54.00;47.38;;;12.60;61.00;;;;;;4947412;28;89527;-57
2023/01/30 02:06:01;;;;;;;56.67;49.33;;;12.60;61.00;;;;;;4953548;28;92001;-59
2023/01/30 02:08:39;;;;;;;55.78;48.53;;;12.60;60.90;;;;;;4942470;28;93900;-59
2023/01/30 02:11:10;;;;;;;56.67;47.88;;;12.60;60.90;;;;;;4938697;28;92507;-59
2023/01/30 02:13:35;;;;;;;55.15;47.47;;;12.60;60.90;;;;;;4937505;28;94059;-59
2023/01/30 02:16:03;;;;;;;56.33;48.70;;;12.60;60.90;;;;;;4939516;28;93026;-58
2023/01/30 02:18:31;;;;;;;56.35;48.30;;;12.60;61.00;;;;;;4938406;28;95135;-58
2023/01/30 02:21:10;;;;;;;55.10;48.42;;;12.50;61.00;;;;;;4943569;28;89938;-60
2023/01/30 02:24:01;;;;;;;55.50;48.67;;;12.50;61.00;;;;;;4950106;28;90542;-57
2023/01/30 02:26:45;;;;;;;54.80;48.30;;;12.60;60.90;;;;;;4939644;28;93710;-58
2023/01/30 02:29:32;;;;;;;56.78;48.35;;;12.60;60.70;;;;;;4941710;28;90570;-59
2023/01/30 02:32:00;;;;;;;54.63;48.08;;;12.60;60.70;;;;;;4941692;28;93644;-53
2023/01/30 02:34:29;;;;;;;54.92;47.47;;;12.60;60.70;;;;;;4924242;28;90058;-58
2023/01/30 02:37:16;;;;;;;55.40;48.10;;;12.60;60.70;;;;;;4930362;28;91917;-59
2023/01/30 02:39:55;;;;;;;55.00;47.83;;;12.70;60.60;;;;;;4936029;28;92096;-57
2023/01/30 02:42:33;;;;;;;54.50;47.90;;;12.70;60.60;;;;;;4943678;28;93403;-59
2023/01/30 02:45:29;;;;;;;53.50;47.38;;;12.60;60.60;;;;;;4948879;28;94210;-59
2023/01/30 02:47:56;;;;;;;56.53;48.85;;;12.60;60.60;;;;;;4949941;28;90882;-57
2023/01/30 02:50:26;;;;;;;53.55;47.45;;;12.60;60.90;;;;;;4943911;28;94217;-59
2023/01/30 02:52:52;;;;;;;54.05;47.33;;;12.60;60.90;;;;;;4938679;28;91774;-59
2023/01/30 02:55:24;;;;;;;56.67;48.40;;;12.60;61.10;;;;;;4938869;28;88906;-58
2023/01/30 02:57:50;;;;;;;55.83;48.33;;;12.60;61.10;;;;;;4947647;28;91396;-60
2023/01/30 03:00:25;;;;;;;54.13;47.30;;;12.60;60.90;;;;;;4940962;28;92343;-57
2023/01/30 03:03:10;;;;;;;56.55;48.20;;;12.60;61.00;;;;;;4957295;28;91049;-59
2023/01/30 03:06:03;;;;;;;56.10;48.20;;;12.70;60.90;;;;;;4933806;28;89802;-58
2023/01/30 03:08:47;;;;;;;55.20;48.13;;;12.70;61.00;;;;;;4929730;28;94648;-58
2023/01/30 03:11:13;;;;;;;54.88;47.75;;;12.70;61.00;;;;;;4932447;28;94063;-58
2023/01/30 03:13:57;;;;;;;53.97;47.47;;;12.70;61.00;;;;;;4937866;28;90471;-59
2023/01/30 03:16:32;;;;;;;56.35;48.22;;;12.70;61.00;;;;;;4936011;28;91190;-59
2023/01/30 03:19:02;;;;;;;54.15;47.72;;;12.70;61.00;;;;;;4931313;28;95259;-59
2023/01/30 03:21:27;;;;;;;55.75;47.83;;;12.60;61.10;;;;;;4938619;28;91133;-58
2023/01/30 03:23:53;;;;;;;57.38;48.15;;;12.70;61.10;;;;;;4930695;28;93888;-58
2023/01/30 03:26:26;;;;;;;55.30;48.08;;;12.70;61.20;;;;;;4927693;28;93812;-57
2023/01/30 03:28:52;;;;;;;54.58;47.35;;;12.70;61.10;;;;;;4941905;28;91827;-58
2023/01/30 03:31:18;;;;;;;55.58;47.85;;;12.70;61.00;;;;;;4935568;28;94370;-58
2023/01/30 03:33:43;;;;;;;53.50;47.17;;;12.60;61.20;;;;;;4929087;28;89958;-56
2023/01/30 03:36:10;;;;;;;54.88;47.15;;;12.70;60.90;;;;;;4944759;28;91499;-56
2023/01/30 03:38:36;;;;;;;55.63;47.08;;;12.60;61.00;;;;;;4942741;28;91422;-59
2023/01/30 03:41:03;;;;;;;55.65;47.30;;;12.70;61.00;;;;;;4929567;28;91146;-56
2023/01/30 03:43:29;;;;;;;53.83;46.70;;;12.70;61.10;;;;;;4938808;28;91193;-59
2023/01/30 03:45:54;;;;;;;54.92;47.30;;;12.70;61.10;;;;;;4946000;28;89157;-58
2023/01/30 03:48:20;;;;;;;55.72;46.80;;;12.70;60.90;;;;;;4945066;28;94862;-60
2023/01/30 03:50:46;;;;;;;53.00;46.55;;;12.60;61.00;;;;;;4928212;28;96363;-59
2023/01/30 03:53:11;;;;;;;53.08;46.47;;;12.70;60.90;;;;;;4944229;28;90894;-57
2023/01/30 03:55:38;;;;;;;53.97;46.65;;;12.70;60.90;;;;;;4938470;28;94206;-59
2023/01/30 03:58:03;;;;;;;55.45;46.42;;;12.70;60.70;;;;;;4947430;28;92662;-59
2023/01/30 04:00:29;;;;;;;54.42;46.28;;;12.70;60.70;;;;;;4928978;28;90851;-58
2023/01/30 04:02:56;;;;;;;56.42;46.25;;;12.70;60.80;;;;;;4938862;28;93890;-60
2023/01/30 04:05:22;;;;;;;53.10;46.15;;;12.80;60.70;;;;;;4946082;28;90165;-60
2023/01/30 04:07:48;;;;;;;53.25;46.28;;;12.80;60.90;;;;;;4932140;28;90983;-59
2023/01/30 04:10:14;;;;;;;53.40;46.25;;;12.80;60.50;;;;;;4934188;28;89689;-56
2023/01/30 04:12:41;;;;;;;53.78;46.22;;;12.80;60.50;;;;;;4937850;28;91342;-53
2023/01/30 04:15:08;;;;;;;53.85;46.35;;;12.70;60.60;;;;;;4931911;28;92360;-55
2023/01/30 04:17:33;;;;;;;52.72;46.25;;;12.70;60.80;;;;;;4918819;28;93749;-58
2023/01/30 04:19:59;;;;;;;53.72;45.92;;;12.80;60.60;;;;;;4946272;28;93537;-59
2023/01/30 04:22:25;;;;;;;53.65;46.10;;;12.80;60.50;;;;;;4934453;28;90607;-59
2023/01/30 04:24:50;;;;;;;52.80;46.30;;;12.80;60.60;;;;;;4928400;28;90121;-59
2023/01/30 04:27:16;;;;;;;53.85;46.58;;;12.70;60.60;;;;;;4937003;28;90200;-59
2023/01/30 04:29:41;;;;;;;54.85;45.95;;;12.80;60.60;;;;;;4931031;28;92106;-56
2023/01/30 04:32:07;;;;;;;53.10;46.20;;;12.90;60.40;;;;;;4942210;28;93922;-59
2023/01/30 04:34:33;;;;;;;54.97;46.50;;;12.80;60.30;;;;;;4929874;28;95468;-58
2023/01/30 04:36:59;;;;;;;53.00;45.92;;;12.80;60.40;;;;;;4936668;28;91101;-49
2023/01/30 04:39:24;;;;;;;51.85;45.97;;;12.90;60.40;;;;;;4952290;28;90072;-56
2023/01/30 04:41:50;;;;;;;51.92;45.88;;;12.90;60.40;;;;;;4955348;28;90798;-60
2023/01/30 04:44:16;;;;;;;53.00;46.13;;;12.90;60.40;;;;;;4945881;28;89732;-58
2023/01/30 04:46:41;;;;;;;52.42;45.72;;;12.80;60.20;;;;;;4943110;28;90618;-54
2023/01/30 04:49:09;;;;;;;54.80;46.15;;;12.90;60.00;;;;;;4938464;28;92118;-58
2023/01/30 04:51:34;;;;;;;53.13;46.22;;;12.90;60.30;;;;;;4937926;28;90726;-59
2023/01/30 04:54:00;;;;;;;53.50;45.85;;;12.90;60.30;;;;;;4953513;28;89523;-58
2023/01/30 04:56:26;;;;;;;52.55;46.03;;;12.90;60.20;;;;;;4952618;28;91231;-60
2023/01/30 04:58:51;;;;;;;53.03;46.08;;;13.00;60.20;;;;;;4935929;28;89570;-60
2023/01/30 05:01:36;;;;;;;52.38;45.90;;;13.00;60.10;;;;;;4944143;28;92937;-59
2023/01/30 05:04:02;;;;;;;53.28;45.85;;;13.10;60.00;;;;;;4941928;28;91220;-58
2023/01/30 05:06:29;;;;;;;52.33;45.83;;;13.20;59.90;;;;;;4942859;28;94608;-58
2023/01/30 05:08:56;;;;;;;52.33;45.90;;;13.30;59.60;;;;;;4935617;28;91628;-58
2023/01/30 05:11:23;;;;;;;53.20;46.15;;;13.40;59.30;;;;;;4935892;28;90105;-59
2023/01/30 05:13:49;;;;;;;53.45;46.25;;;13.50;59.10;;;;;;4935173;28;92380;-59
2023/01/30 05:16:16;;;;;;;53.40;46.05;;;13.50;59.00;;;;;;4935279;28;91192;-58
2023/01/30 05:18:42;;;;;;;52.35;45.67;;;13.50;59.10;;;;;;4935794;28;93432;-57
2023/01/30 05:21:28;;;;;;;52.25;45.97;;;13.50;59.10;;;;;;4942035;28;94208;-57
2023/01/30 05:23:55;;;;;;;52.90;46.25;;;13.60;58.90;;;;;;4939322;28;96180;-58
2023/01/30 05:26:21;;;;;;;52.95;45.85;;;13.60;58.80;;;;;;4940877;28;96903;-58
2023/01/30 05:28:52;;;;;;;53.42;46.10;;;13.60;58.70;;;;;;4942605;28;90909;-59
2023/01/30 05:31:18;;;;;;;52.97;46.10;;;13.60;58.80;;;;;;4939470;28;92216;-57
2023/01/30 05:33:47;;;;;;;53.25;46.03;;;13.60;58.80;;;;;;4943821;28;93444;-56
2023/01/30 05:36:14;;;;;;;53.65;45.97;;;13.60;58.90;;;;;;4940222;28;95251;-60
2023/01/30 05:38:42;;;;;;;53.22;46.00;;;13.60;58.90;;;;;;4944456;28;94466;-58
2023/01/30 05:41:10;;;;;;;54.65;46.03;;;13.60;58.90;;;;;;4933152;28;92438;-57
2023/01/30 05:43:35;;;;;;;52.92;46.00;;;13.70;58.90;;;;;;4946412;28;94566;-59
2023/01/30 05:46:03;;;;;;;53.65;45.90;;;13.60;58.80;;;;;;4945631;28;92250;-57
2023/01/30 05:48:29;;;;;;;55.08;46.22;;;13.60;59.00;;;;;;4936344;28;89779;-59
2023/01/30 05:50:56;;;;;;;53.53;45.95;;;13.50;59.00;;;;;;4952389;28;90301;-58
2023/01/30 05:53:25;;;;;;;53.63;45.97;;;13.60;59.10;;;;;;4940080;28;92012;-57
2023/01/30 05:55:58;;;;;;;52.90;45.90;;;13.50;59.20;;;;;;4937978;28;93044;-54
2023/01/30 05:58:25;;;;;;;52.88;45.75;;;13.50;59.30;;;;;;4928147;28;96172;-59
2023/01/30 06:00:50;;;;;;;52.72;45.80;;;13.40;59.40;;;;;;4940535;28;90023;-61
2023/01/30 06:03:16;;;;;;;54.92;46.00;;;13.30;59.60;;;;;;4948060;28;90229;-58
2023/01/30 06:05:42;;;;;;;53.55;46.13;;;13.30;59.70;;;;;;4945220;28;90048;-51
2023/01/30 06:08:07;;;;;;;53.20;45.97;;;13.30;59.80;;;;;;4939016;28;93084;-58
2023/01/30 06:10:34;;;;;;;53.70;45.88;;;13.20;59.90;;;;;;4932938;28;91534;-61
2023/01/30 06:13:00;;;;;;;54.40;45.95;;;13.20;60.00;;;;;;4934196;28;90725;-53
2023/01/30 06:15:26;;;;;;;54.60;46.13;;;13.10;60.10;;;;;;4939796;28;97640;-60
2023/01/30 06:17:51;;;;;;;54.22;46.30;;;13.10;60.20;;;;;;4929763;28;92072;-59
2023/01/30 06:20:17;;;;;;;53.30;46.17;;;13.10;60.40;;;;;;4941360;28;94433;-58
2023/01/30 06:22:43;;;;;;;53.92;46.20;;;13.10;60.30;;;;;;4936268;28;93204;-55
2023/01/30 06:25:09;;;;;;;53.40;46.10;;;13.10;60.30;;;;;;4944020;28;90030;-58
2023/01/30 06:27:35;;;;;;;54.67;46.30;;;13.10;60.30;;;;;;4938987;28;92924;-53
2023/01/30 06:30:00;;;;;;;53.53;46.05;;;13.10;60.50;;;;;;4946506;28;91516;-56
2023/01/30 06:32:26;;;;;;;53.97;46.40;;;13.10;60.50;;;;;;4935600;28;92342;-59
2023/01/30 06:34:52;;;;;;;53.95;46.33;;;13.10;60.50;;;;;;4944585;28;90486;-59
2023/01/30 06:37:17;;;;;;;54.05;46.33;;;13.10;60.50;;;;;;4934942;28;93120;-59
2023/01/30 06:39:43;;;;;;;53.17;46.15;;;13.00;60.80;;;;;;4939922;28;90287;-56
2023/01/30 06:42:09;;;;;;;53.90;46.42;;;13.00;60.80;;;;;;4940254;28;91394;-58
2023/01/30 06:44:34;;;;;;;55.90;46.67;;;13.00;60.70;;;;;;4931321;28;92099;-58
2023/01/30 06:47:00;;;;;;;54.70;46.28;;;13.00;61.00;;;;;;4950782;28;95621;-55
2023/01/30 06:49:26;;;;;;;54.42;46.15;;;13.00;61.20;;;;;;4937499;28;90851;-58
2023/01/30 06:51:51;;;;;;;52.95;45.53;;;13.00;61.20;;;;;;4943662;28;92491;-56
2023/01/30 06:54:17;;;;;;;54.53;46.13;;;13.00;60.80;;;;;;4928787;28;92430;-58
2023/01/30 06:56:42;;;;;;;54.58;46.33;;;13.00;60.70;;;;;;4936316;28;92811;-58
2023/01/30 06:59:08;;;;;;;53.75;46.22;;;13.00;60.90;;;;;;4942267;28;94093;-57
2023/01/30 07:01:34;;;;;;;55.10;46.45;;;13.00;60.80;;;;;;4944695;28;92595;-57
2023/01/30 07:03:59;;;;;;;53.70;45.83;;;13.00;60.90;;;;;;4945168;28;92290;-56
2023/01/30 07:06:26;;;;;;;53.65;45.90;;;13.00;60.70;;;;;;4939892;28;90960;-58
2023/01/30 07:08:52;;;;;;;53.95;45.92;;;13.00;60.70;;;;;;4935855;28;96914;-58
2023/01/30 07:11:18;;;;;;;54.53;46.15;;;13.00;60.80;;;;;;4938074;28;90339;-56
2023/01/30 07:13:43;;;;;;;53.40;45.97;;;13.00;61.00;;;;;;4937297;28;92868;-56
2023/01/30 07:16:09;;;;;;;53.45;46.08;;;13.00;61.00;;;;;;4933478;28;91059;-59
2023/01/30 07:18:35;;;;;;;53.35;46.00;;;13.10;60.80;;;;;;4928981;28;90215;-58
2023/01/30 07:21:00;;;;;;;53.95;45.83;;;13.00;60.70;;;;;;4942052;28;93275;-51
2023/01/30 07:23:26;;;;;;;54.15;46.13;;;13.10;60.60;;;;;;4929095;28;96075;-59
2023/01/30 07:25:51;;;;;;;54.70;46.42;;;13.10;60.50;;;;;;4933181;28;90875;-59
2023/01/30 07:28:17;;;;;;;53.42;46.08;;;13.10;60.40;;;;;;4943677;28;93001;-58
2023/01/30 07:30:43;;;;;;;53.25;46.05;;;13.10;60.30;;;;;;4954089;28;90062;-57
2023/01/30 07:33:08;;;;;;;53.47;45.90;;;13.20;60.40;;;;;;4939469;28;91111;-59
2023/01/30 07:35:36;;;;;;;53.97;46.25;;;13.20;60.30;;;;;;4933628;28;94869;-51
2023/01/30 07:38:02;;;;;;;53.45;45.97;;;13.20;60.30;;;;;;4941188;28;92276;-50
2023/01/30 07:40:28;;;;;;;53.75;45.95;;;13.20;60.00;;;;;;4943383;28;89845;-58
2023/01/30 07:43:09;;;;;;;53.35;46.00;;;13.20;60.20;;;;;;4952640;28;91089;-59
2023/01/30 07:45:47;;;;;;;53.47;45.87;;;13.20;60.00;;;;;;4934506;28;91095;-61
2023/01/30 07:48:16;;;;;;;52.80;45.75;;;13.30;60.00;;;;;;4943397;28;93520;-53
2023/01/30 07:50:43;;;;;;;53.88;46.42;;;13.30;60.00;;;;;;4938179;28;89946;-49
2023/01/30 07:53:11;;;;;;;54.47;46.35;;;13.30;59.90;;;;;;4929979;28;92674;-58
2023/01/30 07:55:36;;;;;;;54.13;46.05;;;13.20;60.00;;;;;;4923614;28;90414;-57
2023/01/30 07:58:03;;;;;;;54.90;46.15;;;13.20;60.00;;;;;;4933718;28;90805;-54
2023/01/30 08:00:29;;;;;;;53.53;45.85;;;13.20;60.00;;;;;;4929635;28;94404;-58
2023/01/30 08:02:54;;;;;;;54.17;46.15;;;13.20;60.40;;;;;;4933812;28;90947;-58
2023/01/30 08:05:20;;;;;;;54.85;46.45;;;13.30;59.80;;;;;;4936704;28;94072;-58
2023/01/30 08:07:49;;;;;;;55.03;46.25;;;13.30;59.90;;;;;;4952323;28;89825;-50
2023/01/30 08:10:15;;;;;;;55.70;45.92;;;13.30;59.80;;;;;;4936824;28;93406;-56
2023/01/30 08:12:41;;;;;;;54.00;46.25;;;13.30;59.80;;;;;;4929622;28;95796;-58
2023/01/30 08:15:08;;;;;;;53.58;46.08;;;13.30;59.80;;;;;;4936107;28;92619;-57
2023/01/30 08:17:34;;;;;;;53.22;45.85;;;13.40;59.70;;;;;;4935079;28;95385;-59
2023/01/30 08:19:59;;;;;;;53.85;46.00;;;13.30;59.70;;;;;;4944436;28;91358;-60
2023/01/30 08:22:25;;;;;;;55.45;46.25;;;13.30;59.80;;;;;;4936837;28;93608;-59
2023/01/30 08:24:51;;;;;;;53.72;45.97;;;13.30;59.70;;;;;;4951662;28;94436;-53
2023/01/30 08:27:16;;;;;;;53.75;46.20;;;13.40;59.80;;;;;;4954401;28;91664;-59
2023/01/30 08:29:43;;;;;;;53.63;46.20;;;13.40;59.70;;;;;;4945956;28;89809;-57
2023/01/30 08:32:09;;;;;;;54.10;46.20;;;13.50;59.60;;;;;;4939159;28;93532;-59
2023/01/30 08:34:35;;;;;;;54.13;46.08;;;13.40;59.60;;;;;;4933654;28;93433;-50
2023/01/30 08:37:01;;;;;;;55.90;46.30;;;13.40;59.90;;;;;;4943733;28;89892;-59
2023/01/30 08:39:26;;;;;;;54.85;45.92;;;13.40;59.90;;;;;;4940461;28;92642;-55
2023/01/30 08:41:52;;;;;;;53.85;45.78;;;13.40;59.90;;;;;;4948644;28;91878;-60
2023/01/30 08:44:17;;;;;;;55.13;46.08;;;13.40;59.80;;;;;;4942952;28;94004;-58
2023/01/30 08:46:43;;;;;;;54.17;46.15;;;13.40;59.90;;;;;;4939745;28;92900;-55
2023/01/30 08:49:10;;;;;;;54.22;45.95;;;13.40;59.80;;;;;;4939886;28;90365;-51
2023/01/30 08:51:36;;;;;;;55.15;46.33;;;13.40;59.80;;;;;;4943443;28;92309;-55
2023/01/30 08:54:02;;;;;;;56.00;46.65;;;13.40;60.00;;;;;;4927533;28;93604;-59
2023/01/30 08:56:27;;;;;;;53.55;45.97;;;13.30;60.20;;;;;;4940659;28;92258;-58
2023/01/30 08:58:53;;;;;;;54.13;46.33;;;13.30;60.10;;;;;;4940055;28;93414;-59
2023/01/30 09:01:19;;;;;;;54.53;46.28;;;13.40;60.10;;;;;;4942102;28;89993;-58
2023/01/30 09:03:45;;;;;;;53.55;46.08;;;13.40;60.00;;;;;;4944920;28;93020;-57
2023/01/30 09:06:10;;;;;;;54.60;46.10;;;13.40;59.90;;;;;;4929633;28;91540;-56
2023/01/30 09:08:36;;;;;;;53.85;46.00;;;13.40;59.90;;;;;;4940540;28;92104;-59
2023/01/30 09:11:04;;;;;;;54.60;46.20;;;13.40;60.20;;;;;;4941036;28;99956;-58
2023/01/30 09:13:31;;;;;;;55.53;46.15;;;13.40;59.90;;;;;;4936720;28;90809;-59
2023/01/30 09:15:57;;;;;;;55.30;46.08;;;13.40;60.10;;;;;;4938182;28;91923;-58
2023/01/30 09:18:24;;;;;;;57.53;46.42;;;13.40;60.30;;;;;;4949983;28;90049;-59
2023/01/30 09:20:50;;;;;;;53.83;45.97;;;13.40;60.20;;;;;;4920770;28;95368;-60
2023/01/30 09:23:16;;;;;;;53.63;45.85;;;13.50;59.80;;;;;;4948079;28;90711;-59
2023/01/30 09:25:44;;;;;;;53.60;46.05;;;13.50;59.80;;;;;;4951342;28;89996;-51
2023/01/30 09:28:10;;;;;;;57.17;46.03;;;13.50;59.80;;;;;;4937701;28;89629;-59
2023/01/30 09:30:35;;;;;;;55.75;46.17;;;13.50;59.70;;;;;;4943946;28;91268;-59
2023/01/30 09:33:01;;;;;;;57.13;46.55;;;13.60;59.60;;;;;;4945547;28;91158;-58
2023/01/30 09:35:26;;;;;;;54.75;46.25;;;13.50;59.80;;;;;;4945684;28;91099;-58
2023/01/30 09:37:53;;;;;;;55.90;46.22;;;13.50;59.70;;;;;;4940619;28;92022;-59
2023/01/30 09:40:25;;;;;;;56.83;46.50;;;13.50;59.60;;;;;;4934592;28;97788;-57
2023/01/30 09:43:12;;;;;;;58.17;46.45;;;13.60;59.70;;;;;;4941597;28;93992;-58
2023/01/30 09:45:59;;;;;;;55.15;46.38;;;13.50;59.70;;;;;;4935431;28;92362;-58
2023/01/30 09:48:38;;;;;;;56.17;46.40;;;13.50;59.70;;;;;;4946262;28;90771;-57
2023/01/30 09:51:09;;;;;;;57.92;46.05;;;13.60;59.60;;;;;;4933974;28;91845;-59
2023/01/30 09:53:38;;;;;;;55.13;46.13;;;13.60;59.70;;;;;;4942540;28;93231;-59
2023/01/30 09:56:04;;;;;;;56.38;46.65;;;13.60;59.40;;;;;;4941598;28;90340;-59
2023/01/30 09:58:58;;;;;;;56.50;45.97;;;13.60;59.50;;;;;;4948366;28;89793;-58
2023/01/30 10:01:32;;;;;;;58.65;46.50;;;13.60;59.60;;;;;;4933903;28;91693;-59
2023/01/30 10:04:35;;;;;;;54.53;46.15;;;13.70;59.50;;;;;;4935024;28;95692;-58
2023/01/30 10:07:03;;;;;;;54.47;46.33;;;13.60;59.60;;;;;;4938666;28;95782;-59
2023/01/30 10:09:39;;;;;;;55.38;46.13;;;13.60;60.10;;;;;;4937571;28;92803;-58
2023/01/30 10:12:27;;;;;;;55.42;46.35;;;13.70;59.50;;;;;;4943669;28;91451;-58
2023/01/30 10:14:58;;;;;;;56.75;46.33;;;13.70;59.50;;;;;;4941848;28;91249;-59
2023/01/30 10:17:42;;;;;;;;;;;13.60;59.40;;;;;;4936802;28;91997;-52
2023/01/30 10:20:25;;;;;;;55.72;46.30;;;13.70;59.40;;;;;;4946159;28;89614;-57
2023/01/30 10:23:20;;;;;;;55.40;46.05;;;13.70;59.20;;;;;;4944856;28;93544;-55
2023/01/30 10:25:54;;;;;;;55.70;46.22;;;13.70;59.30;;;;;;4947382;28;91036;-58
2023/01/30 10:28:36;;;;;;;56.30;46.25;;;13.70;59.30;;;;;;4940086;28;96783;-59
2023/01/30 10:31:13;;;;;;;55.45;46.33;;;13.70;59.20;;;;;;4942894;28;97198;-57
2023/01/30 10:33:56;;;;;;;54.85;46.40;;;13.80;59.10;;;;;;4945886;28;91487;-58
2023/01/30 10:36:28;;;;;;;57.30;46.60;;;13.70;59.20;;;;;;4929183;28;93346;-52
2023/01/30 10:38:57;;;;;;;58.35;46.63;;;13.80;59.20;;;;;;4938087;28;89893;-58
2023/01/30 10:41:29;;;;;;;55.78;46.55;;;13.70;59.10;;;;;;4939649;28;92143;-58
2023/01/30 10:44:07;;;;;;;58.03;46.97;;;13.80;59.20;;;;;;4934567;28;91115;-55
2023/01/30 10:46:42;;;;;;;56.10;46.35;;;13.80;59.10;;;;;;4936640;28;91506;-58
2023/01/30 10:49:32;;;;;;;55.03;46.03;;;13.80;59.20;;;;;;4939408;28;90656;-59
2023/01/30 10:52:16;;;;;;;55.55;46.38;;;13.80;59.10;;;;;;4943638;28;90222;-57
2023/01/30 10:54:48;;;;;;;55.72;46.60;;;13.80;59.20;;;;;;4949107;28;93743;-59
2023/01/30 10:57:19;;;;;;;56.55;46.47;;;13.80;59.00;;;;;;4944213;28;91996;-54
2023/01/30 11:00:01;;;;;;;55.63;46.25;;;13.90;59.10;;;;;;4935672;28;93956;-58
2023/01/30 11:02:57;;;;;;;59.08;47.17;;;13.90;58.90;;;;;;4928866;28;90938;-57
2023/01/30 11:05:38;;;;;;;57.30;46.67;;;13.90;58.90;;;;;;4931638;28;94885;-59
2023/01/30 11:08:17;;;;;;;54.78;46.30;;;13.90;58.80;;;;;;4938655;28;93357;-58
2023/01/30 11:10:43;;;;;;;55.85;46.63;;;14.00;58.70;;;;;;4942679;28;90235;-55
2023/01/30 11:13:19;;;;;;;58.30;46.80;;;13.90;58.70;;;;;;4949844;28;93694;-57
2023/01/30 11:15:49;;;;;;;57.80;46.33;;;14.00;58.60;;;;;;4949954;28;91999;-55
2023/01/30 11:18:16;;;;;;;57.65;47.13;;;14.00;58.60;;;;;;4932214;28;91393;-56
2023/01/30 11:20:45;;;;;;;56.83;46.55;;;14.00;58.60;;;;;;4938192;28;93615;-57
2023/01/30 11:23:26;;;;;;;55.65;46.35;;;14.00;58.50;;;;;;4933417;28;90761;-55
2023/01/30 11:25:57;;;;;;;56.75;46.35;;;14.00;58.40;;;;;;4943970;28;91070;-58
2023/01/30 11:28:26;;;;;;;55.85;46.28;;;14.00;58.50;;;;;;4945372;28;94997;-60
2023/01/30 11:30:55;;;;;;;60.45;46.78;;;14.10;58.50;;;;;;4931059;28;95109;-58
2023/01/30 11:33:30;;;;;;;56.38;46.22;;;14.10;58.30;;;;;;4931374;28;97458;-57
2023/01/30 11:36:03;;;;;;;57.75;46.78;;;14.10;58.30;;;;;;4934179;28;91321;-56
2023/01/30 11:38:31;;;;;;;56.10;46.47;;;14.10;58.30;;;;;;4938599;28;93407;-58
2023/01/30 11:41:18;;;;;;;56.45;46.05;;;14.10;58.30;;;;;;4940586;28;90483;-58
2023/01/30 11:43:44;;;;;;;59.13;46.58;;;14.10;58.10;;;;;;4933760;28;92125;-58
2023/01/30 11:46:14;;;;;;;58.42;46.45;;;14.10;58.20;;;;;;4930300;28;93402;-51
2023/01/30 11:48:54;;;;;;;60.97;47.08;;;14.10;58.30;;;;;;4940481;28;92107;-58
2023/01/30 11:51:22;;;;;;;57.55;47.03;;;14.10;58.20;;;;;;4941626;28;90130;-54
2023/01/30 11:54:06;;;;;;;57.78;46.58;;;14.10;58.30;;;;;;4937301;28;91106;-59
2023/01/30 11:56:41;;;;;;;58.25;46.60;;;14.00;58.30;;;;;;4938850;28;94044;-56
2023/01/30 11:59:33;;;;;;;55.63;46.10;;;14.00;58.20;;;;;;4938425;28;91401;-53
2023/01/30 12:02:28;;;;;;;57.65;46.40;;;14.00;58.30;;;;;;4941454;28;91098;-55
2023/01/30 12:04:58;;;;;;;56.60;46.55;;;14.00;58.20;;;;;;4938190;28;89520;-58
2023/01/30 12:07:29;;;;;;;55.90;46.42;;;14.00;58.30;;;;;;4934172;28;90363;-60
2023/01/30 12:09:56;;;;;;;56.78;46.47;;;14.00;58.20;;;;;;4938035;28;91091;-61
2023/01/30 12:12:48;;;;;;;56.28;46.25;;;14.00;58.30;;;;;;4947504;28;90900;-61
2023/01/30 12:15:39;;;;;;;;;;;14.00;58.40;;;;;;4944540;28;90093;-56
2023/01/30 12:18:16;;;;;;;57.05;46.25;;;14.00;58.40;;;;;;4927288;28;92863;-60
2023/01/30 12:20:59;;;;;;;56.50;46.53;;;14.00;58.40;;;;;;4933575;28;94782;-60
2023/01/30 12:24:05;;;;;;;57.75;46.53;;;14.00;58.50;;;;;;4940328;28;90685;-59
2023/01/30 12:26:42;;;;;;;56.50;46.38;;;13.90;58.50;;;;;;4941177;28;90648;-60
2023/01/30 12:29:17;;;;;;;58.10;46.47;;;14.00;58.60;;;;;;4932459;28;93999;-57
2023/01/30 12:31:47;;;;;;;56.92;46.42;;;14.00;58.60;;;;;;4941525;28;90107;-57
2023/01/30 12:34:13;;;;;;;57.15;46.35;;;14.00;58.50;;;;;;4931689;28;90998;-51
2023/01/30 12:36:59;;;;;;;55.63;46.58;;;14.00;58.50;;;;;;4929666;28;92440;-60
2023/01/30 12:39:34;;;;;;;57.40;46.65;;;14.00;58.60;;;;;;4943028;28;92278;-61
2023/01/30 12:42:25;;;;;;;56.78;46.38;;;14.00;58.60;;;;;;4934235;28;90819;-60
2023/01/30 12:45:05;;;;;;;56.78;46.60;;;14.00;58.60;;;;;;4939455;28;91402;-61
2023/01/30 12:47:45;;;;;;;58.50;46.78;;;14.10;58.60;;;;;;4940279;28;92364;-58